This is the latest recevied weather packets stored in our database for station/object K0BL. If no packets are shown the sender has not sent any weather packets the latest 10 day(s).
| Time | Temp. | Humidity | Pressure | Rain* | Wind** | Luminosity | Snow |
|---|---|---|---|---|---|---|---|
| 1777916091 | 26.67° C | 46% | 998.3 hPa | 0 mm | - | 882 W/m² | - |
| 1777910376 | 24.44° C | 49% | 999 hPa | 0 mm | - | 761 W/m² | - |
| 1777908271 | 23.33° C | 54% | 999.4 hPa | 0 mm | - | 680 W/m² | - |
| 1777905259 | 21.67° C | 55% | 999.6 hPa | 0 mm | - | 548 W/m² | - |
| 1777900158 | 14.44° C | 73% | 1000.3 hPa | 0 mm | - | 275 W/m² | - |
| 1777898055 | 10.56° C | 83% | 1000.6 hPa | 0 mm | - | 165 W/m² | - |
| 1777897754 | 10.56° C | 86% | 1000.7 hPa | 0 mm | - | 151 W/m² | - |
| 1777896849 | 8.33° C | 95% | 1000.8 hPa | 0 mm | - | 110 W/m² | - |
| 1777894744 | 6.67° C | 100% | 1000.8 hPa | 0 mm | - | 29 W/m² | - |
| 1777892341 | 6.67° C | 99% | 1001 hPa | 0 mm | - | 2 W/m² | - |
| 1777891138 | 6.67° C | 99% | 1001.1 hPa | 0 mm | - | 0 W/m² | - |
| 1777890838 | 6.67° C | 99% | 1001.1 hPa | 0 mm | - | 0 W/m² | - |
| 1777889939 | 6.67° C | 99% | 1001.3 hPa | 0 mm | - | 0 W/m² | - |
| 1777888136 | 6.67° C | 98% | 1001.7 hPa | 0 mm | - | 0 W/m² | - |
| 1777886634 | 7.22° C | 97% | 1002 hPa | 0 mm | - | 0 W/m² | - |
| 1777886334 | 7.22° C | 97% | 1002.1 hPa | 0 mm | - | 0 W/m² | - |
| 1777885134 | 7.22° C | 97% | 1002.3 hPa | 0 mm | - | 0 W/m² | - |
| 1777880622 | 7.78° C | 94% | 1003.2 hPa | 0 mm | - | 0 W/m² | - |
| 1777879419 | 7.78° C | 93% | 1003.4 hPa | 0 mm | - | 0 W/m² | - |
| 1777878817 | 7.78° C | 93% | 1003.6 hPa | 0 mm | - | 0 W/m² | - |
| 1777876117 | 8.33° C | 90% | 1003.8 hPa | 0 mm | - | 0 W/m² | - |
| 1777875520 | 8.33° C | 90% | 1004 hPa | 0 mm | - | 0 W/m² | - |
| 1777872809 | 9.44° C | 86% | 1004.4 hPa | 0 mm | - | 0 W/m² | - |
| 1777870706 | 10° C | 84% | 1004.6 hPa | 0 mm | - | 0 W/m² | - |
| 1777869804 | 10.56° C | 83% | 1004.6 hPa | 0 mm | - | 0 W/m² | - |
* Rain latest hour (hover to see other rain measurements)
** Current wind speed in m/s (hover to see current wind gust speed)